Latest Coastal Weather Observations for Low Isles

IDQ60701

Issued at 9:43 pm EST Monday 6 February 2023 (issued every 10 minutes, with the page automatically refreshed every 10 minutes)

About coastal observations | Map of coastal stations | Coastal observations for QLD | Marine services | Other Formats
Station Details ID: 031037 Name: LOW ISLES LIGHTHOUSE Lat: -16.38 Lon: 145.56 Height: 2.9 m
Data from the previous 72 hours. | See also: Recent months at Low Isles
Date/Time
EST
Wind Sea
Height
m
Swell Vis
km
Cloud Weather Temp
°C
Press
MSL
hPa
Rain since
9am
mm
Dir  Spd
kts
Gust
kts
Height
m
Period
s
Dir
06/09:30pm SE 14 16 - - - - - - - 28.4 1007.3 9.4
06/09:00pm ESE 9 11 - - - - - - Rain 28.1 1007.3 9.4
06/08:30pm SE 12 19 - - - - - - - 28.3 1007.2 9.0
06/08:00pm ESE 11 13 - - - - - - - 28.9 1007.1 9.0
06/07:30pm ESE 11 14 - - - - - - - 28.7 1006.9 9.0
06/07:00pm ESE 11 15 - - - - - - - 28.9 1006.7 9.0
06/06:30pm ESE 14 17 - - - - - - - 29.0 1006.5 9.0
06/06:00pm ESE 12 16 - - - - - - - 29.3 1006.2 9.0
06/05:30pm ESE 13 16 - - - - - - - 29.6 1005.8 9.0
06/05:00pm ESE 14 17 - - - - - - - 29.7 1005.8 9.0
06/04:30pm ESE 14 18 - - - - - - - 30.0 1005.8 9.0
06/04:00pm ESE 12 16 - - - - - - - 29.7 1005.8 9.0
06/03:30pm ESE 13 16 - - - - - - - 29.8 1006.2 9.0
06/03:00pm ESE 13 16 - - - - - - - 30.1 1006.2 9.0
06/02:30pm ESE 11 15 - - - - - - - 30.1 1006.3 9.0
06/02:00pm E 11 16 - - - - - - - 30.5 1006.4 9.0
06/01:30pm SE 10 12 - - - - - - - 29.6 1006.6 9.0
06/01:00pm SE 13 15 - - - - - - - 28.8 1006.9 9.0
06/12:30pm SSE 10 12 - - - - - - - 28.4 1007.5 9.0
06/12:00pm SE 15 17 - - - - - - Recent precip. 27.2 1008.1 9.0
06/11:30am SSE 4 7 - - - - - - - 27.6 1008.5 9.0
06/11:00am S 7 10 - - - - - - - 27.0 1008.9 1.8
06/10:30am SSW 4 6 - - - - - - - 27.0 1009.0 1.4
06/10:00am CALM 0 3 - - - - - - - 27.3 1008.7 1.4
06/09:30am NE 7 8 - - - - - - - 26.7 1008.9 1.4
06/09:00am ESE 10 13 - - - - - - Rain 26.4 1009.2 14.0
06/08:30am ESE 12 16 - - - - - - - 26.7 1009.0 11.8
06/08:00am ESE 11 14 - - - - - - - 27.1 1008.5 11.8
06/07:30am SE 12 14 - - - - - - - 27.5 1008.2 11.6
06/07:00am SE 12 15 - - - - - - - 27.3 1007.9 11.6
06/06:30am SE 13 15 - - - - - - - 27.3 1007.4 11.6
06/06:00am SE 17 18 - - - - - - Recent precip. 27.0 1007.2 11.6
06/05:30am SE 16 19 - - - - - - - 26.8 1006.6 11.6
06/05:00am SSW 10 13 - - - - - - - 26.9 1006.4 10.4
06/04:30am SSE 9 15 - - - - - - - 27.5 1006.1 7.6
06/04:00am W 4 5 - - - - - - - 27.3 1006.1 7.6
06/03:30am WSW 7 8 - - - - - - - 27.4 1006.1 7.6
06/03:00am W 7 8 - - - - - - - 27.3 1006.0 7.6
06/02:30am NNW 5 7 - - - - - - - 27.0 1005.9 7.6
06/02:00am NNE 7 8 - - - - - - - 26.9 1006.1 7.6
06/01:30am NE 8 9 - - - - - - - 26.9 1006.4 7.6
06/01:00am NE 8 9 - - - - - - - 27.0 1006.6 7.6
06/12:30am NE 7 9 - - - - - - - 27.1 1006.8 7.6
06/12:00am S 3 5 - - - - - - - 27.4 1006.9 7.6
 
Date/Time
EST
Wind Sea
Height
m
Swell Vis
km
Cloud Weather Temp
°C
Press
MSL
hPa
Rain since
9am
mm
Dir  Spd
kts
Gust
kts
Height
m
Period
s
Dir
05/11:30pm S 3 4 - - - - - - - 27.3 1007.1 7.6
05/11:00pm SSW 3 5 - - - - - - - 27.2 1007.3 7.6
05/10:30pm SSW 4 6 - - - - - - - 27.3 1007.5 7.6
05/10:00pm S 6 7 - - - - - - - 27.2 1007.4 7.6
05/09:30pm SSE 7 8 - - - - - - - 27.3 1007.2 5.6
05/09:00pm SSE 7 8 - - - - - - - 27.3 1006.8 5.6
05/08:30pm SSE 8 9 - - - - - - - 27.3 1006.7 5.6
05/08:00pm SE 7 8 - - - - - - - 27.1 1006.2 5.6
05/07:30pm ESE 9 10 - - - - - - - 27.1 1005.9 5.6
05/07:00pm ESE 11 13 - - - - - - - 27.2 1005.7 5.6
05/06:30pm E 9 12 - - - - - - - 27.5 1005.5 5.6
05/06:00pm ESE 4 6 - - - - - - Recent precip. 27.3 1005.0 5.6
05/05:30pm SE 9 11 - - - - - - - 27.9 1004.7 2.6
05/05:00pm SE 6 7 - - - - - - - 28.5 1004.5 2.4
05/04:30pm E 11 13 - - - - - - - 29.2 1004.1 2.4
05/04:00pm ESE 7 9 - - - - - - - 29.2 1004.0 2.4
05/03:30pm ENE 4 6 - - - - - - - 29.7 1004.1 2.4
05/03:00pm SE 8 9 - - - - - - - 29.3 1004.4 2.4
05/02:30pm SE 8 9 - - - - - - - 29.5 1004.7 2.4
05/02:00pm SE 8 10 - - - - - - - 29.7 1004.8 2.4
05/01:30pm ESE 6 9 - - - - - - - 30.1 1005.1 2.4
05/01:00pm E 6 8 - - - - - - - 30.5 1005.3 2.4
05/12:30pm NE 6 7 - - - - - - - 29.2 1006.1 2.4
05/12:00pm ENE 7 9 - - - - - - - 28.7 1006.7 2.4
05/11:30am NE 12 15 - - - - - - - 27.3 1006.9 2.4
05/11:00am NE 11 14 - - - - - - - 27.5 1006.9 2.4
05/10:30am ENE 6 9 - - - - - - - 27.5 1007.2 2.2
05/10:00am NE 5 6 - - - - - - - 27.7 1007.1 0.0
05/09:30am E 5 7 - - - - - - - 26.9 1007.0 0.0
05/09:00am E 4 6 - - - - - - - 27.0 1007.0 5.6
05/08:30am ENE 5 6 - - - - - - - 26.7 1006.5 5.6
05/08:00am NE 7 9 - - - - - - - 26.5 1006.1 5.6
05/07:30am NE 13 17 - - - - - - - 26.7 1005.7 5.2
05/07:00am SW 5 7 - - - - - - - 27.5 1005.4 2.8
05/06:30am WSW 6 7 - - - - - - - 27.0 1005.0 2.8
05/06:00am SW 7 8 - - - - - - Recent precip. 26.8 1004.9 2.8
05/05:30am WSW 8 8 - - - - - - - 26.8 1004.4 2.6
05/05:00am SW 8 10 - - - - - - - 26.4 1004.0 2.6
05/04:30am WSW 9 10 - - - - - - - 26.6 1003.8 2.4
05/04:00am WNW 8 9 - - - - - - - 26.6 1003.9 2.4
05/03:30am SW 5 7 - - - - - - - 26.8 1003.5 2.4
05/03:00am SE 7 9 - - - - - - Rain 27.0 1003.5 2.4
05/02:30am S 8 9 - - - - - - - 27.5 1003.4 1.8
05/02:00am SSE 8 11 - - - - - - - 27.6 1003.5 1.8
05/01:30am SSE 12 13 - - - - - - - 27.6 1003.7 1.8
05/01:00am S 12 15 - - - - - - - 27.3 1004.2 1.6
05/12:30am SW 12 13 - - - - - - - 27.3 1004.4 1.6
05/12:00am SW 13 15 - - - - - - - 27.2 1004.8 1.6
 
Date/Time
EST
Wind Sea
Height
m
Swell Vis
km
Cloud Weather Temp
°C
Press
MSL
hPa
Rain since
9am
mm
Dir  Spd
kts
Gust
kts
Height
m
Period
s
Dir
04/11:30pm SW 13 15 - - - - - - - 27.8 1005.2 1.6
04/11:00pm NE 2 5 - - - - - - - 27.6 1005.3 1.6
04/10:30pm NNE 7 7 - - - - - - - 27.7 1005.3 1.6
04/10:00pm NNE 5 6 - - - - - - - 27.7 1005.0 1.6
04/09:30pm NNE 7 8 - - - - - - - 27.8 1004.7 1.6
04/09:00pm N 8 10 - - - - - - Recent precip. 28.0 1004.5 1.6
04/08:30pm NE 3 6 - - - - - - - 27.6 1004.4 1.6
04/08:00pm NNE 13 19 - - - - - - - 28.8 1003.9 0.0
04/07:30pm NNE 9 11 - - - - - - - 29.0 1003.6 0.0
04/07:00pm NNE 10 11 - - - - - - - 29.2 1002.9 0.0
04/06:30pm NNE 10 11 - - - - - - - 29.5 1002.6 0.0
04/06:00pm NNE 9 11 - - - - - - - 29.6 1002.2 0.0
04/05:30pm N 9 11 - - - - - - - 29.7 1002.0 0.0
04/05:00pm N 10 11 - - - - - - - 30.0 1001.5 0.0
04/04:30pm NNE 11 13 - - - - - - - 30.3 1001.1 0.0
04/04:00pm N 12 14 - - - - - - - 30.5 1000.9 0.0
04/03:30pm N 11 14 - - - - - - - 31.1 1001.0 0.0
04/03:00pm N 14 15 - - - - - - - 31.0 1001.0 0.0
04/02:30pm N 12 14 - - - - - - - 31.3 1001.3 0.0
04/02:00pm N 13 15 - - - - - - - 30.7 1001.6 0.0
04/01:30pm N 11 13 - - - - - - - 30.8 1001.9 0.0
04/01:00pm N 11 13 - - - - - - - 30.6 1002.0 0.0
04/12:30pm N 8 10 - - - - - - - 31.3 1002.3 0.0
04/12:00pm NE 5 7 - - - - - - - 31.6 1002.8 0.0
04/11:30am NNE 5 6 - - - - - - - 31.1 1003.2 0.0
04/11:00am NNW 3 4 - - - - - - - 30.4 1003.4 0.0
04/10:30am NNW 6 7 - - - - - - - 29.9 1003.5 0.0
04/10:00am W 6 7 - - - - - - - 29.7 1003.5 0.0
04/09:30am W 7 8 - - - - - - - 29.0 1003.6 0.0
04/09:00am WSW 8 9 - - - - - - - 28.4 1003.5 0.6
04/08:30am WSW 9 11 - - - - - - - 28.0 1003.3 0.6
04/08:00am WSW 8 10 - - - - - - - 28.3 1003.1 0.6
04/07:30am SW 7 9 - - - - - - - 28.1 1002.8 0.6
04/07:00am SW 8 9 - - - - - - - 27.8 1002.6 0.6
04/06:30am W 8 10 - - - - - - - 27.7 1002.4 0.6
04/06:00am WSW 8 9 - - - - - - - 27.7 1002.0 0.6
04/05:30am WSW 8 11 - - - - - - - 27.9 1001.3 0.6
04/05:00am W 13 15 - - - - - - - 27.9 1000.9 0.6
04/04:30am W 11 15 - - - - - - - 28.0 1000.4 0.6
04/04:00am WNW 15 18 - - - - - - - 28.3 1000.3 0.6
04/03:30am W 12 14 - - - - - - - 28.0 1000.3 0.6
04/03:00am NW 10 14 - - - - - - - 27.9 1000.3 0.6
04/02:30am NNW 8 9 - - - - - - - 27.7 1000.5 0.6
04/02:00am W 10 13 - - - - - - - 27.8 1000.7 0.6
04/01:30am WSW 10 11 - - - - - - - 27.4 1000.9 0.6
04/01:00am WSW 7 9 - - - - - - - 27.3 1001.1 0.6
04/12:30am SW 6 7 - - - - - - - 27.5 1001.5 0.6
04/12:00am SW 7 8 - - - - - - - 27.4 1002.1 0.6
 
Date/Time
EST
Wind Sea
Height
m
Swell Vis
km
Cloud Weather Temp
°C
Press
MSL
hPa
Rain since
9am
mm
Dir  Spd
kts
Gust
kts
Height
m
Period
s
Dir
03/11:30pm SW 7 8 - - - - - - - 27.3 1002.7 0.6
03/11:00pm W 7 8 - - - - - - - 27.7 1002.7 0.6
03/10:30pm NW 8 9 - - - - - - - 27.5 1002.6 0.6
03/10:00pm NW 11 12 - - - - - - - 27.2 1002.7 0.6

Other formats

Comma delimited format used in spreadsheet applications
http://www.bom.gov.au/fwo/IDQ60701/IDQ60701.94285.axf

JavaScript Object Notation format (JSON) in row-major order
http://www.bom.gov.au/fwo/IDQ60701/IDQ60701.94285.json

Data quality

Most of these data are generated automatically and are frequently updated. Quality checks on data are not normally performed. It is possible for incorrect values to appear. Refer to information at About Latest Weather Observations and please check the disclaimer before using these data.